Güvercinlik Airport

LTAB · 安卡拉省, 土耳其

罗盘
风向 的 Güvercinlik Airport 6/24
风: 2 kt, 1 beaufort

1 kt

2 kt
改变
0 ft 1.000 2.000 3.000 4.000 5.000
CAVOK
METAR LTAB 012250Z VRB02KT CAVOK 02/M02 Q1015 NOSIG RMK RWY06 24004KT

METAR Güvercinlik Airport - LTAB

Güvercinlik Airport是,土耳其中的小机场。 该机场位于纬度39,93460和经度32,74000。 该机场有一条跑道: 6/24. 本场的ICAO机场代码为LTAB。 机场在Ankara FIR中。

该航空气象观测是针对Güvercinlik Airport在2024年3月2日 01:50, 当地时间进行的。

机场观察

可变方向的风很小或没有风。

天气为CAVOK。这意味着在5.000 ft或MSA(最低安全高度)以下(以较高者为准)以下没有云。这也意味着没有观测到积雨云或高耸的积云,可见度为10 km 或者更多或更高。此外,不会有雾,降雨或其他重要天气。

温度为2 °C,阵风为1 °C。 露点为-2 °C,相对湿度为75%。 海平面上的气压为1015 hPa (QNH)。

白天

今天,太阳从07:21升起,在18:41降落。 这适用于Güvercinlik Airport,世界夏令时可能有所不同。 当地时间与世界标准时间之间的时差为+3 小时。 当前,没有夏令时有效。

公司介绍

我们没有关于这个机场的公司信息。

体会

到Vliegles.nl去找飞行课程,跳伞和其他飞行体验。 浏览页面,了解Güvercinlik Airport附近所有可用的活动。 你也可以使用搜索功能来寻找你所在地附近的特定飞行课程、跳伞或其他飞行体验。

跑道

Id 标题 侧风 逆风 侧风 %
6/24 064°-244° 2 kt 90 %

逆风成分最大的方向会被突出显示,并用于横风计算。 这并不一定意味着这个方向在使用。

温度 & 天气

温度 2 °C
露点 -2 °C
相对湿度 75%
风寒 1 °C
Kp-index 0 (0-9)

评论

RWY06 24004KT

白天

日出
07:21 (4:21)
中午
13:01
日落
18:41

小工具

你想在你的网站上有一个关于Güvercinlik Airport的当前航空天气(METAR)的小部件吗?

显示HTML代码
?>